Time;durP1;ratioP1;P1;durP2;ratioP2;P2;SDS_P1;SDS_P2;PMS_P1;PMS_P2;Temp;Humidity;BMP_temperature;BMP_pressure;BME280_temperature;BME280_humidity;BME280_pressure;Samples;Min_cycle;Max_cycle;Signal;HPM_P1;HPM_P2
2022/07/02 00:02:25;;;;;;;1.50;1.27;;;;;;;13.39;72.97;102090.91;5075588;28;20025;-84
2022/07/02 00:04:59;;;;;;;1.27;1.27;;;;;;;13.35;72.56;102090.09;5074519;28;20028;-83
2022/07/02 00:07:27;;;;;;;1.30;1.20;;;;;;;13.27;72.53;102084.06;5075419;28;20071;-83
2022/07/02 00:09:55;;;;;;;1.33;1.23;;;;;;;13.28;72.83;102091.00;5074562;28;20541;-84
2022/07/02 00:12:20;;;;;;;1.05;1.05;;;;;;;13.23;73.01;102092.78;5075353;28;20039;-84
2022/07/02 00:14:51;;;;;;;1.50;1.40;;;;;;;13.19;72.33;102091.03;5065547;28;20024;-83
2022/07/02 00:17:17;;;;;;;1.42;1.35;;;;;;;13.17;72.92;102096.28;5074169;28;20028;-84
2022/07/02 00:19:43;;;;;;;1.20;1.20;;;;;;;13.16;72.98;102089.34;5075129;28;20081;-84
2022/07/02 00:22:10;;;;;;;1.67;1.42;;;;;;;13.13;73.06;102094.56;5075222;28;20028;-84
2022/07/02 00:24:39;;;;;;;1.50;1.40;;;;;;;13.10;73.06;102090.25;5074654;28;20108;-84
2022/07/02 00:27:08;;;;;;;1.55;1.45;;;;;;;13.09;72.96;102093.72;5075165;28;20028;-83
2022/07/02 00:29:35;;;;;;;1.65;1.40;;;;;;;13.05;73.18;102085.94;5075332;28;20119;-83
2022/07/02 00:32:00;;;;;;;;;;;;;;;13.05;73.15;102088.53;5074490;28;20388;-84
2022/07/02 00:34:25;;;;;;;1.73;1.57;;;;;;;13.01;73.09;102092.91;5075325;28;20011;-84
2022/07/02 00:36:55;;;;;;;1.20;1.20;;;;;;;13.01;73.14;102098.13;5074882;28;20020;-83
2022/07/02 00:39:20;;;;;;;1.52;1.42;;;;;;;12.99;73.36;102099.84;5074295;28;20035;-84
2022/07/02 00:41:47;;;;;;;1.60;1.50;;;;;;;12.94;73.03;102093.81;5058397;28;20054;-84
2022/07/02 00:44:13;;;;;;;1.65;1.55;;;;;;;12.94;73.78;102093.81;5052360;28;20033;-84
2022/07/02 00:46:40;;;;;;;1.33;1.23;;;;;;;12.89;73.02;102099.03;5053534;28;20033;-84
2022/07/02 00:49:05;;;;;;;1.48;1.40;;;;;;;12.88;73.55;102104.25;5054944;28;20033;-83
2022/07/02 00:51:33;;;;;;;1.30;1.20;;;;;;;12.80;74.42;102088.66;5053992;28;20020;-84
2022/07/02 00:53:58;;;;;;;1.38;1.27;;;;;;;12.77;73.84;102094.75;5053656;28;20036;-84
2022/07/02 00:56:28;;;;;;;1.30;1.20;;;;;;;12.72;74.73;102086.06;5054770;28;20028;-84
2022/07/02 00:58:53;;;;;;;1.15;1.15;;;;;;;12.69;73.97;102088.72;5054207;28;20044;-84
2022/07/02 01:01:18;;;;;;;1.10;1.10;;;;;;;12.63;74.33;102083.50;5052929;28;20402;-84
2022/07/02 01:03:48;;;;;;;2.07;1.30;;;;;;;12.58;73.73;102080.94;5054362;28;20032;-83
2022/07/02 01:06:13;;;;;;;1.35;1.23;;;;;;;12.61;74.53;102090.50;5053726;28;20370;-84
2022/07/02 01:11:25;;;;;;;1.40;1.30;;;;;;;12.51;75.01;102080.09;5054229;28;20036;-84
2022/07/02 01:13:52;;;;;;;1.30;1.13;;;;;;;12.47;75.10;102082.72;5052399;28;20079;-83
2022/07/02 01:16:18;;;;;;;1.23;1.17;;;;;;;12.42;74.76;102084.47;5054372;28;20032;-84
2022/07/02 01:18:43;;;;;;;1.20;1.20;;;;;;;12.37;74.93;102076.69;5054136;28;20021;-83
2022/07/02 01:21:08;;;;;;;1.50;1.40;;;;;;;12.33;74.76;102075.81;5052853;28;20458;-84
2022/07/02 01:23:34;;;;;;;1.40;1.30;;;;;;;12.32;74.62;102078.41;5054296;28;20074;-83
2022/07/02 01:26:02;;;;;;;1.20;1.20;;;;;;;12.32;74.76;102083.63;5053934;28;20025;-83
2022/07/02 01:28:27;;;;;;;2.42;1.60;;;;;;;12.32;74.73;102084.50;5036787;28;20115;-84
2022/07/02 01:30:53;;;;;;;1.60;1.50;;;;;;;12.35;74.61;102081.03;5053557;28;20163;-83
2022/07/02 01:33:18;;;;;;;1.60;1.50;;;;;;;12.35;74.59;102079.28;5054081;28;20032;-83
2022/07/02 01:35:44;;;;;;;1.40;1.30;;;;;;;12.34;74.60;102081.88;5052737;28;20063;-83
2022/07/02 01:38:09;;;;;;;1.43;1.33;;;;;;;12.34;76.29;102080.13;5053613;28;20025;-83
2022/07/02 01:40:34;;;;;;;1.17;1.17;;;;;;;12.28;75.14;102077.56;5053339;28;20039;-83
2022/07/02 01:43:00;;;;;;;1.57;1.30;;;;;;;12.26;75.14;102078.44;5052375;28;20055;-83
2022/07/02 01:45:25;;;;;;;1.40;1.30;;;;;;;12.23;75.06;102078.44;5054202;28;20029;-83
2022/07/02 01:47:50;;;;;;;1.50;1.40;;;;;;;12.24;74.98;102088.00;5053837;28;20051;-83
2022/07/02 01:50:16;;;;;;;1.57;1.40;;;;;;;12.20;75.12;102080.19;5053222;28;20062;-83
2022/07/02 01:52:41;;;;;;;1.63;1.50;;;;;;;12.16;75.46;102075.84;5053431;28;20067;-83
2022/07/02 01:55:07;;;;;;;1.30;1.17;;;;;;;12.19;75.38;102082.81;5053523;28;20545;-83
2022/07/02 01:57:35;;;;;;;2.10;1.40;;;;;;;12.17;75.24;102079.31;5052767;28;20032;-83
2022/07/02 02:00:03;;;;;;;1.25;1.15;;;;;;;12.14;75.24;102080.22;5053324;28;20079;-83
2022/07/02 02:02:29;;;;;;;1.25;1.25;;;;;;;12.15;75.14;102079.34;5051835;28;20119;-83
2022/07/02 02:04:54;;;;;;;1.33;1.23;;;;;;;12.15;75.25;102076.75;5053200;28;20058;-83
2022/07/02 02:07:19;;;;;;;1.50;1.40;;;;;;;12.14;75.34;102081.94;5052880;28;20041;-83
2022/07/02 02:09:44;;;;;;;1.50;1.40;;;;;;;12.13;75.56;102077.59;5051508;28;20124;-84
2022/07/02 02:12:10;;;;;;;1.37;1.27;;;;;;;12.11;75.54;102080.22;5053286;28;20377;-83
2022/07/02 02:14:35;;;;;;;1.57;1.47;;;;;;;12.07;75.19;102073.25;5053584;28;20111;-83
2022/07/02 02:17:01;;;;;;;1.60;1.50;;;;;;;12.06;75.52;102079.34;5052266;28;20424;-83
2022/07/02 02:19:26;;;;;;;1.63;1.53;;;;;;;12.03;75.54;102071.56;5053347;28;20423;-83
2022/07/02 02:21:51;;;;;;;1.37;1.37;;;;;;;12.01;75.65;102073.28;5052680;28;20021;-83
2022/07/02 02:24:17;;;;;;;1.30;1.30;;;;;;;11.95;77.08;102066.31;5052267;28;20025;-83
2022/07/02 02:26:42;;;;;;;1.27;1.17;;;;;;;11.97;76.18;102074.13;5051898;28;20025;-83
2022/07/02 02:29:08;;;;;;;1.57;1.37;;;;;;;11.96;76.24;102075.88;5053187;28;20060;-84
2022/07/02 02:31:33;;;;;;;1.30;1.20;;;;;;;11.95;76.61;102079.34;5052386;28;20040;-83
2022/07/02 02:33:58;;;;;;;1.20;1.20;;;;;;;11.94;76.33;102081.91;5052535;28;20032;-83
2022/07/02 02:36:24;;;;;;;1.23;1.23;;;;;;;11.91;76.19;102069.78;5052336;28;20028;-83
2022/07/02 02:38:49;;;;;;;1.10;1.10;;;;;;;11.95;76.27;102081.06;5044231;28;20123;-83
2022/07/02 02:41:14;;;;;;;1.30;1.20;;;;;;;11.98;76.26;102079.38;5052595;28;20044;-83
2022/07/02 02:43:40;;;;;;;0.93;0.93;;;;;;;12.02;76.33;102077.63;5052010;28;20462;-83
2022/07/02 02:46:06;;;;;;;1.27;1.27;;;;;;;12.05;76.00;102075.00;5051734;28;20025;-83
2022/07/02 02:48:32;;;;;;;1.10;1.10;;;;;;;12.09;76.62;102079.34;5052851;28;20047;-83
2022/07/02 02:50:58;;;;;;;1.73;1.40;;;;;;;12.11;76.17;102076.72;5052231;28;20111;-83
2022/07/02 02:53:23;;;;;;;1.40;1.30;;;;;;;12.14;76.70;102076.72;5052084;28;20120;-83
2022/07/02 02:55:49;;;;;;;1.50;1.40;;;;;;;12.19;77.02;102080.19;5051711;28;20029;-83
2022/07/02 02:58:14;;;;;;;1.30;1.20;;;;;;;12.18;76.72;102076.72;5052883;28;20500;-83
2022/07/02 03:00:40;;;;;;;1.27;1.20;;;;;;;12.22;77.04;102081.91;5051645;28;20029;-83
2022/07/02 03:03:05;;;;;;;1.10;1.10;;;;;;;12.22;77.36;102084.53;5052549;28;20414;-83
2022/07/02 03:05:30;;;;;;;1.37;1.20;;;;;;;12.27;77.36;102088.84;5052024;28;20108;-83
2022/07/02 03:07:56;;;;;;;0.93;0.93;;;;;;;12.25;77.49;102085.38;5051563;28;20037;-84
2022/07/02 03:10:21;;;;;;;1.47;1.10;;;;;;;12.24;77.72;102083.63;5052500;28;20021;-83
2022/07/02 03:12:46;;;;;;;1.07;1.07;;;;;;;12.22;78.31;102084.53;5051479;28;20021;-84
2022/07/02 03:15:13;;;;;;;1.27;1.20;;;;;;;12.19;77.31;102088.84;5056216;28;20028;-83
2022/07/02 03:17:38;;;;;;;1.48;1.23;;;;;;;12.23;77.06;102091.47;5056321;28;20056;-83
2022/07/02 03:20:04;;;;;;;1.50;1.40;;;;;;;12.20;77.14;102090.59;5055820;28;20048;-83
2022/07/02 03:22:29;;;;;;;1.73;1.63;;;;;;;12.22;76.64;102097.53;5056317;28;20503;-83
2022/07/02 03:24:55;;;;;;;1.50;1.40;;;;;;;12.19;76.77;102099.28;5055938;28;20090;-83
2022/07/02 03:27:20;;;;;;;1.60;1.50;;;;;;;12.20;77.13;102102.75;5054646;28;20120;-83
2022/07/02 03:29:46;;;;;;;1.50;1.40;;;;;;;12.18;76.87;102102.72;5056099;28;20100;-83
2022/07/02 03:32:11;;;;;;;1.57;1.47;;;;;;;12.17;77.05;102106.22;5056186;28;20454;-83
2022/07/02 03:34:36;;;;;;;1.33;1.23;;;;;;;12.17;77.06;102108.81;5054399;28;20064;-83
2022/07/02 03:37:02;;;;;;;1.50;1.40;;;;;;;12.16;77.38;102108.81;5056107;28;20370;-83
2022/07/02 03:39:27;;;;;;;1.40;1.30;;;;;;;12.16;77.02;102114.88;5055944;28;20104;-83
2022/07/02 03:41:52;;;;;;;1.30;1.20;;;;;;;12.17;77.45;102115.75;5065225;28;20091;-83
2022/07/02 03:44:18;;;;;;;1.90;1.60;;;;;;;12.18;76.87;102120.09;5076227;28;20078;-83
2022/07/02 03:46:43;;;;;;;1.83;1.60;;;;;;;12.18;77.29;102120.94;5075641;28;20384;-83
2022/07/02 03:49:08;;;;;;;2.50;1.50;;;;;;;12.22;76.97;102118.34;5075194;28;20481;-83
2022/07/02 03:51:34;;;;;;;1.40;1.33;;;;;;;12.26;77.22;102107.94;5075958;28;20020;-83
2022/07/02 03:53:59;;;;;;;1.50;1.40;;;;;;;12.28;76.96;102108.81;5075435;28;20032;-83
2022/07/02 03:56:24;;;;;;;1.60;1.50;;;;;;;12.30;77.07;102111.38;5074518;28;20040;-83
2022/07/02 03:58:50;;;;;;;1.60;1.50;;;;;;;12.29;77.27;102107.94;5075773;28;20112;-84
2022/07/02 04:01:16;;;;;;;1.17;1.17;;;;;;;12.30;77.13;102114.88;5075996;28;20051;-83
2022/07/02 04:03:41;;;;;;;3.20;1.30;;;;;;;12.31;77.43;102115.72;5073937;28;20036;-83
2022/07/02 04:06:06;;;;;;;1.30;1.20;;;;;;;12.29;78.24;102115.75;5075535;28;20172;-83
2022/07/02 04:08:32;;;;;;;1.37;1.27;;;;;;;12.33;78.07;102124.41;5075548;28;20029;-83
2022/07/02 04:10:57;;;;;;;1.20;1.10;;;;;;;12.35;78.00;102117.47;5074398;28;20499;-83
2022/07/02 04:13:25;;;;;;;1.30;1.20;;;;;;;12.35;77.88;102117.47;5075638;28;20384;-83
2022/07/02 04:15:51;;;;;;;1.08;1.08;;;;;;;12.40;78.33;102122.66;5074353;28;20384;-83
2022/07/02 04:18:18;;;;;;;1.20;1.10;;;;;;;12.42;77.62;102120.94;5075110;28;20028;-83
2022/07/02 04:20:43;;;;;;;1.30;1.15;;;;;;;12.43;77.58;102117.47;5075415;28;20092;-83
2022/07/02 04:23:09;;;;;;;1.40;1.30;;;;;;;12.43;78.29;102117.47;5074672;28;20102;-83
2022/07/02 04:25:34;;;;;;;1.50;1.40;;;;;;;12.44;78.63;102120.03;5074211;28;20378;-83
2022/07/02 04:27:59;;;;;;;1.70;1.20;;;;;;;12.43;78.46;102123.50;5074760;28;20389;-83
2022/07/02 04:30:24;;;;;;;1.40;1.30;;;;;;;12.44;79.64;102122.66;5074547;28;20099;-83
2022/07/02 04:32:52;;;;;;;2.27;1.50;;;;;;;12.41;79.91;102117.44;5074163;28;20385;-83
2022/07/02 04:35:18;;;;;;;1.55;1.45;;;;;;;12.41;79.20;102125.25;5074963;28;20021;-83
2022/07/02 04:37:43;;;;;;;1.70;1.60;;;;;;;12.43;78.28;102122.66;5074114;28;20164;-83
2022/07/02 04:40:08;;;;;;;1.50;1.37;;;;;;;12.48;78.65;102128.72;5074974;28;20081;-83
2022/07/02 04:42:34;;;;;;;1.10;1.10;;;;;;;12.54;78.86;102125.22;5058647;28;20179;-83
2022/07/02 04:44:59;;;;;;;1.53;1.23;;;;;;;12.57;79.47;102117.41;5053760;28;20116;-84
2022/07/02 04:47:27;;;;;;;1.00;1.00;;;;;;;12.65;79.24;102123.44;5055015;28;20036;-84
2022/07/02 04:49:53;;;;;;;1.00;1.00;;;;;;;12.71;78.84;102117.34;5054569;28;20485;-83
2022/07/02 04:52:18;;;;;;;1.40;1.30;;;;;;;12.78;78.88;102117.31;5053997;28;20033;-83
2022/07/02 04:54:43;;;;;;;1.27;1.17;;;;;;;12.84;79.42;102124.25;5054467;28;20025;-83
2022/07/02 04:57:09;;;;;;;1.20;1.20;;;;;;;12.89;78.91;102119.88;5054474;28;20041;-83
2022/07/02 04:59:34;;;;;;;1.20;1.17;;;;;;;12.93;79.17;102124.19;5053038;28;20025;-83
2022/07/02 05:02:00;;;;;;;1.20;1.20;;;;;;;12.98;79.51;102121.56;5054320;28;20055;-84
2022/07/02 05:04:25;;;;;;;0.90;0.90;;;;;;;13.05;78.39;102128.50;5054602;28;20053;-83
2022/07/02 05:06:50;;;;;;;0.93;0.93;;;;;;;13.10;79.30;102129.34;5053097;28;20036;-84
2022/07/02 05:09:16;;;;;;;1.27;1.17;;;;;;;13.17;78.17;102127.56;5054463;28;20075;-84
2022/07/02 05:11:41;;;;;;;0.77;0.77;;;;;;;13.21;79.07;102123.19;5053977;28;20060;-84
2022/07/02 05:14:06;;;;;;;2.67;1.40;;;;;;;13.26;79.33;102122.28;5053626;28;20029;-84
2022/07/02 05:16:32;;;;;;;2.33;1.47;;;;;;;13.32;79.54;102125.75;5054584;28;20390;-84
2022/07/02 05:18:59;;;;;;;1.63;1.30;;;;;;;13.34;78.91;102130.06;5053980;28;20035;-84
2022/07/02 05:21:25;;;;;;;1.30;1.30;;;;;;;13.43;78.99;102123.97;5053473;28;20124;-84
2022/07/02 05:23:50;;;;;;;1.10;1.10;;;;;;;13.50;79.34;102130.88;5053448;28;20045;-85
2022/07/02 05:26:15;;;;;;;1.20;1.10;;;;;;;13.54;79.32;102126.50;5053598;28;20025;-84
2022/07/02 05:28:41;;;;;;;1.43;1.33;;;;;;;13.60;79.69;102126.47;5053071;28;20036;-85
2022/07/02 05:31:06;;;;;;;1.70;1.60;;;;;;;13.64;79.89;102124.69;5054246;28;20393;-85
2022/07/02 05:33:31;;;;;;;1.40;1.30;;;;;;;13.70;79.03;102124.63;5053472;28;20799;-85
2022/07/02 05:35:57;;;;;;;1.27;1.20;;;;;;;13.71;78.95;102122.03;5053607;28;20027;-85
2022/07/02 05:38:22;;;;;;;1.33;1.23;;;;;;;13.76;78.24;102132.41;5053769;28;20032;-86
2022/07/02 05:40:47;;;;;;;1.33;1.23;;;;;;;13.79;78.55;102132.38;5054071;28;20025;-85
2022/07/02 05:43:13;;;;;;;1.77;1.27;;;;;;;13.83;79.75;102128.03;5092088;28;20387;-84
2022/07/02 05:45:38;;;;;;;1.43;1.33;;;;;;;13.89;79.05;102136.66;5093658;28;20034;-84
2022/07/02 05:48:04;;;;;;;1.40;1.40;;;;;;;13.94;79.51;102133.13;5092296;28;20075;-85
2022/07/02 05:50:29;;;;;;;1.43;1.20;;;;;;;13.97;78.68;102130.50;5093768;28;20398;-84
2022/07/02 05:52:54;;;;;;;0.80;0.80;;;;;;;14.03;78.66;102131.31;5093608;28;20081;-84
2022/07/02 05:55:20;;;;;;;1.90;1.43;;;;;;;14.12;78.43;102139.94;5091115;28;20024;-84
2022/07/02 05:57:45;;;;;;;1.10;1.10;;;;;;;14.17;78.47;102138.16;5093585;28;20058;-84
2022/07/02 06:00:11;;;;;;;1.40;1.30;;;;;;;14.24;77.74;102139.81;5093888;28;20074;-84
2022/07/02 06:02:37;;;;;;;1.50;1.40;;;;;;;14.30;77.14;102146.72;5092661;28;20020;-85
2022/07/02 06:07:38;;;;;;;2.30;1.50;;;;;;;14.39;77.34;102148.38;5093456;28;20387;-85
2022/07/02 06:07:51;;;;;;;1.40;1.30;;;;;;;14.56;76.68;102141.22;5090625;28;20047;-84
2022/07/02 06:10:20;;;;;;;1.25;1.25;;;;;;;15.25;77.00;102143.91;5092877;28;20031;-84
2022/07/02 06:12:47;;;;;;;1.30;1.20;;;;;;;17.11;75.95;102140.63;5093306;28;20033;-85
2022/07/02 06:15:12;;;;;;;1.20;1.20;;;;;;;19.22;71.89;102143.91;5093433;28;20027;-84
2022/07/02 06:17:38;;;;;;;1.63;1.53;;;;;;;20.83;66.37;102141.06;5092293;28;20020;-84
2022/07/02 06:20:03;;;;;;;1.20;1.03;;;;;;;21.39;59.78;102146.81;5093380;28;20032;-86
2022/07/02 06:22:34;;;;;;;1.07;0.93;;;;;;;21.17;63.22;102138.91;5090785;28;20028;-88
2022/07/02 06:25:01;;;;;;;1.25;1.00;;;;;;;21.01;61.44;102141.28;5073872;28;20048;-89
2022/07/02 06:27:26;;;;;;;1.02;0.88;;;;;;;20.90;61.93;102131.13;5086331;28;20078;-89
2022/07/02 06:29:52;;;;;;;0.63;0.63;;;;;;;20.93;62.12;102143.38;5054321;28;20393;-85
2022/07/02 06:32:18;;;;;;;0.60;0.60;;;;;;;20.88;61.53;102145.31;5073332;28;20021;-88
2022/07/02 06:34:44;;;;;;;0.50;0.50;;;;;;;21.01;61.53;102150.97;5072760;28;20031;-87
2022/07/02 06:37:10;;;;;;;0.40;0.40;;;;;;;21.22;57.65;102152.75;5072406;28;20028;-87
2022/07/02 06:39:35;;;;;;;0.80;0.80;;;;;;;21.39;50.81;102154.72;5073388;28;20471;-89
2022/07/02 06:42:19;;;;;;;0.93;0.80;;;;;;;21.27;57.13;102153.47;5072098;28;20128;-87
2022/07/02 06:44:52;;;;;;;2.03;0.90;;;;;;;20.98;57.22;102152.84;5072169;28;20396;-86
2022/07/02 06:47:19;;;;;;;0.93;0.93;;;;;;;20.71;60.23;102149.44;5072862;28;20031;-87
2022/07/02 06:49:44;;;;;;;0.80;0.80;;;;;;;20.52;60.97;102151.88;5070454;28;20070;-86
2022/07/02 06:52:11;;;;;;;0.73;0.73;;;;;;;20.39;61.59;102154.09;5072067;28;20029;-87
2022/07/02 06:54:37;;;;;;;0.85;0.85;;;;;;;20.43;62.03;102146.94;5073039;28;20024;-87
2022/07/02 06:57:03;;;;;;;0.60;0.60;;;;;;;20.60;61.82;102148.97;5072888;28;20035;-87
2022/07/02 06:59:29;;;;;;;1.70;0.80;;;;;;;20.72;61.34;102137.94;5072665;28;20020;-86
2022/07/02 07:01:54;;;;;;;0.60;0.60;;;;;;;20.93;61.03;102146.84;5066606;28;20444;-87
2022/07/02 07:04:19;;;;;;;0.93;0.73;;;;;;;21.04;56.69;102148.22;5052699;28;20052;-86
2022/07/02 07:06:51;;;;;;;1.10;0.73;;;;;;;21.17;58.93;102146.81;5051289;28;20024;-86
2022/07/02 07:09:17;;;;;;;1.17;0.80;;;;;;;21.34;59.43;102147.91;5052625;28;20029;-87
2022/07/02 07:11:43;;;;;;;1.00;0.93;;;;;;;21.48;57.39;102150.88;5051559;28;20029;-86
2022/07/02 07:14:08;;;;;;;0.80;0.80;;;;;;;21.51;57.97;102156.03;5052535;28;20037;-87
2022/07/02 07:16:33;;;;;;;0.70;0.70;;;;;;;21.48;51.38;102153.50;5052733;28;20017;-88
2022/07/02 07:21:24;;;;;;;1.43;0.70;;;;;;;21.52;57.16;102147.19;5052810;28;20042;-87
2022/07/02 07:23:49;;;;;;;0.80;0.80;;;;;;;21.70;57.33;102150.00;5052108;28;20029;-87
2022/07/02 07:26:15;;;;;;;0.73;0.70;;;;;;;21.82;55.53;102152.16;5051903;28;20107;-87
2022/07/02 07:28:41;;;;;;;0.57;0.57;;;;;;;21.84;56.13;102152.94;5052476;28;20025;-85
2022/07/02 07:31:06;;;;;;;0.55;0.55;;;;;;;21.95;56.92;102146.34;5052180;28;20036;-88
2022/07/02 07:33:32;;;;;;;1.05;0.60;;;;;;;22.04;49.50;102149.47;5068579;28;20024;-88
2022/07/02 07:35:58;;;;;;;0.70;0.70;;;;;;;22.01;53.93;102144.31;5072712;28;20384;-88
2022/07/02 07:38:23;;;;;;;2.23;0.87;;;;;;;22.00;48.97;102154.94;5073116;28;20028;-88
2022/07/02 07:40:48;;;;;;;0.60;0.60;;;;;;;21.94;54.63;102150.78;5071738;28;20116;-88
2022/07/02 07:43:14;;;;;;;1.97;0.80;;;;;;;22.03;53.99;102149.50;5071484;28;20388;-88
2022/07/02 07:45:39;;;;;;;0.60;0.60;;;;;;;22.09;48.94;102151.03;5072115;28;20048;-89
2022/07/02 07:48:04;;;;;;;1.80;0.60;;;;;;;22.18;54.03;102154.16;5070548;28;20043;-88
2022/07/02 07:50:30;;;;;;;0.50;0.50;;;;;;;22.24;54.19;102149.50;5071977;28;20032;-87
2022/07/02 07:52:55;;;;;;;0.80;0.60;;;;;;;22.33;54.30;102144.66;5072030;28;20083;-88
2022/07/02 07:55:20;;;;;;;0.73;0.60;;;;;;;22.43;54.05;102139.88;5072121;28;20033;-89
2022/07/02 07:57:49;;;;;;;1.20;0.63;;;;;;;22.60;53.57;102147.03;5072976;28;20036;-89
2022/07/02 08:00:14;;;;;;;1.13;0.50;;;;;;;22.72;52.39;102152.69;5074384;28;20059;-89
2022/07/02 08:02:40;;;;;;;0.32;0.32;;;;;;;22.76;53.79;102155.13;5074700;28;20024;-88
2022/07/02 08:05:06;;;;;;;1.00;0.80;;;;;;;22.71;50.50;102143.88;5075968;28;20028;-89
2022/07/02 08:07:38;;;;;;;0.63;0.47;;;;;;;22.65;52.71;102142.38;5066110;28;20035;-88
2022/07/02 08:10:06;;;;;;;0.45;0.30;;;;;;;22.76;52.27;102141.91;5052099;28;20025;-87
2022/07/02 08:12:31;;;;;;;0.70;0.57;;;;;;;22.78;52.70;102132.09;5053389;28;20037;-88
2022/07/02 08:15:08;;;;;;;0.93;0.50;;;;;;;22.82;52.05;102128.38;5059133;28;20031;-89
2022/07/02 08:17:35;;;;;;;0.50;0.45;;;;;;;22.90;52.70;102137.75;5073024;28;20052;-86
2022/07/02 08:20:10;;;;;;;;;;;;;;;22.95;52.82;102141.03;5075612;28;20051;-85
2022/07/02 08:22:36;;;;;;;1.42;1.00;;;;;;;22.91;45.88;102134.19;5074620;28;19948;-88
2022/07/02 08:25:06;;;;;;;0.98;0.90;;;;;;;22.70;44.45;102138.69;5075062;28;20350;-87
2022/07/02 08:27:32;;;;;;;1.05;0.80;;;;;;;22.56;48.80;102132.22;5075264;28;20473;-87
2022/07/02 08:30:00;;;;;;;0.70;0.67;;;;;;;22.57;50.73;102131.31;5074193;28;20063;-87
2022/07/02 08:32:26;;;;;;;0.47;0.47;;;;;;;22.63;50.58;102131.00;5075270;28;20699;-87
2022/07/02 08:34:52;;;;;;;0.87;0.30;;;;;;;22.75;51.80;102126.94;5074843;28;20048;-87
2022/07/02 08:37:17;;;;;;;;;;;;;;;22.91;51.37;102132.38;5074920;28;20023;-86
2022/07/02 08:39:43;;;;;;;0.88;0.70;;;;;;;22.99;47.91;102126.72;5074042;28;19991;-92
2022/07/02 08:42:09;;;;;;;0.60;0.60;;;;;;;22.96;49.73;102124.22;5052191;28;20469;-90
2022/07/02 08:44:35;;;;;;;;;;;;;;;23.02;49.21;102120.41;5055549;28;20039;-91
2022/07/02 08:47:03;;;;;;;1.02;0.52;;;;;;;23.05;50.91;102120.28;5055315;28;19912;-85
2022/07/02 08:49:32;;;;;;;0.47;0.47;;;;;;;23.21;50.97;102125.72;5054657;28;20021;-85
2022/07/02 08:52:02;;;;;;;0.32;0.30;;;;;;;23.35;48.48;102120.63;5053633;28;20095;-84
2022/07/02 08:54:27;;;;;;;0.95;0.45;;;;;;;23.34;49.65;102124.19;5054832;28;20021;-85
2022/07/02 08:56:54;;;;;;;0.50;0.50;;;;;;;23.35;49.70;102117.97;5054697;28;20535;-84
2022/07/02 08:59:19;;;;;;;1.10;0.80;;;;;;;23.31;46.84;102118.16;5052461;28;20099;-84
2022/07/02 09:01:47;;;;;;;0.80;0.80;;;;;;;23.25;47.79;102114.91;5054167;28;20107;-82
2022/07/02 09:04:20;;;;;;;1.17;1.08;;;;;;;23.29;47.71;102107.66;5055260;28;20025;-86
2022/07/02 09:06:49;;;;;;;0.80;0.80;;;;;;;23.26;44.17;102113.97;5054230;28;20028;-83
2022/07/02 09:09:16;;;;;;;1.48;0.90;;;;;;;23.21;48.12;102109.84;5060098;28;20047;-88
2022/07/02 09:11:41;;;;;;;0.95;0.82;;;;;;;23.27;44.04;102110.41;5073680;28;20029;-89
2022/07/02 09:14:07;;;;;;;0.97;0.80;;;;;;;23.32;47.58;102106.63;5075350;28;20484;-90
2022/07/02 09:16:34;;;;;;;1.60;1.10;;;;;;;23.39;47.29;102097.47;5060308;28;20032;-89
2022/07/02 09:18:59;;;;;;;0.85;0.60;;;;;;;23.48;47.38;102094.38;5054066;28;20037;-90
2022/07/02 09:21:25;;;;;;;0.97;0.87;;;;;;;23.55;45.19;102093.09;5054701;28;20516;-87
2022/07/02 09:23:50;;;;;;;1.13;0.70;;;;;;;23.59;48.28;102094.69;5054617;28;20372;-89
2022/07/02 09:26:20;;;;;;;2.17;1.30;;;;;;;23.56;44.56;102086.88;5054019;28;20492;-88
2022/07/02 09:29:01;;;;;;;2.25;1.10;;;;;;;23.39;46.33;102086.88;5054155;28;20025;-88
2022/07/02 09:31:28;;;;;;;2.05;1.40;;;;;;;23.43;46.86;102081.34;5054551;28;20032;-89
2022/07/02 09:33:54;;;;;;;1.50;1.10;;;;;;;23.63;46.30;102076.81;5053839;28;20021;-90
2022/07/02 09:36:20;;;;;;;1.13;0.88;;;;;;;23.73;47.00;102083.38;5054521;28;20032;-89
2022/07/02 09:38:51;;;;;;;1.80;0.80;;;;;;;23.82;46.49;102070.56;5054359;28;20025;-88
2022/07/02 09:41:21;;;;;;;0.73;0.73;;;;;;;23.97;45.25;102076.91;5053425;28;20044;-88
2022/07/02 09:43:59;;;;;;;0.90;0.90;;;;;;;24.06;43.97;102076.41;5053919;28;20120;-88
2022/07/02 09:46:25;;;;;;;1.10;0.85;;;;;;;24.00;43.58;102059.03;5054008;28;20029;-88
2022/07/02 09:48:51;;;;;;;0.95;0.80;;;;;;;24.02;43.83;102066.91;5053313;28;20523;-88
2022/07/02 09:51:16;;;;;;;0.80;0.70;;;;;;;24.13;45.03;102064.53;5054374;28;20091;-87
2022/07/02 09:53:52;;;;;;;1.75;0.80;;;;;;;24.21;42.63;102058.81;5053222;28;20388;-88
2022/07/02 09:56:22;;;;;;;1.33;1.02;;;;;;;24.27;44.43;102057.63;5053642;28;20535;-90
2022/07/02 09:58:49;;;;;;;1.10;0.90;;;;;;;24.32;44.87;102060.91;5052327;28;20127;-86
2022/07/02 10:01:19;;;;;;;2.65;1.15;;;;;;;24.39;40.29;102054.31;5053610;28;20373;-91
2022/07/02 10:03:56;;;;;;;1.15;0.95;;;;;;;24.44;45.08;102065.53;5053312;28;20465;-86
2022/07/02 10:06:22;;;;;;;1.20;0.90;;;;;;;24.56;44.33;102063.13;5053425;28;20033;-87
2022/07/02 10:08:48;;;;;;;1.07;0.83;;;;;;;24.66;44.00;102056.38;5052152;28;20474;-88
2022/07/02 10:11:14;;;;;;;;;;;;;;;24.62;45.38;102060.16;5053773;28;20056;-87
2022/07/02 10:13:40;;;;;;;0.73;0.70;;;;;;;24.71;45.69;102050.84;5053359;28;20296;-89
2022/07/02 10:16:14;;;;;;;0.57;0.57;;;;;;;24.92;44.61;102051.41;5053091;28;20051;-90
2022/07/02 10:18:43;;;;;;;0.77;0.68;;;;;;;25.17;43.78;102047.34;5052908;28;20038;-88
2022/07/02 10:21:12;;;;;;;0.70;0.70;;;;;;;25.24;40.62;102038.06;5053369;28;20033;-87
2022/07/02 10:23:38;;;;;;;0.98;0.70;;;;;;;25.21;43.16;102040.94;5051679;28;20021;-87
2022/07/02 10:26:04;;;;;;;0.82;0.73;;;;;;;25.14;41.49;102040.44;5053239;28;20035;-88
2022/07/02 10:28:29;;;;;;;1.90;1.00;;;;;;;25.22;40.93;102045.28;5053390;28;20477;-88
2022/07/02 10:30:56;;;;;;;1.67;0.80;;;;;;;25.31;41.68;102038.56;5052527;28;20025;-89
2022/07/02 10:33:50;;;;;;;1.30;0.80;;;;;;;25.39;40.23;102033.66;5053710;28;20081;-89
2022/07/02 10:36:16;;;;;;;1.17;0.85;;;;;;;25.41;42.56;102034.44;5052584;28;20033;-89
2022/07/02 10:38:45;;;;;;;;;;;;;;;25.36;40.18;102033.84;5052700;28;20033;-91
2022/07/02 10:41:10;;;;;;;1.20;0.80;;;;;;;25.23;42.22;102037.22;5059358;28;20042;-89
2022/07/02 10:43:39;;;;;;;1.40;0.73;;;;;;;25.10;41.44;102034.44;5082699;28;20059;-87
2022/07/02 10:46:08;;;;;;;1.52;0.70;;;;;;;24.81;42.26;102036.97;5073282;28;20017;-91
2022/07/02 10:48:47;;;;;;;0.50;0.50;;;;;;;24.69;43.30;102035.00;5072644;28;20064;-91
2022/07/02 10:51:39;;;;;;;0.70;0.70;;;;;;;24.72;43.76;102034.84;5074434;28;20047;-92
2022/07/02 10:54:11;;;;;;;0.52;0.52;;;;;;;24.68;43.59;102027.94;5070583;28;20603;-90
2022/07/02 10:56:49;;;;;;;1.48;0.80;;;;;;;24.59;42.82;102034.66;5073252;28;20020;-90
2022/07/02 10:59:36;;;;;;;1.45;0.80;;;;;;;24.24;43.12;102025.97;5087315;28;20445;-91
2022/07/02 11:02:11;;;;;;;0.50;0.50;;;;;;;24.09;44.08;102028.53;5093021;28;20020;-89
2022/07/02 11:04:38;;;;;;;1.30;0.63;;;;;;;24.07;43.07;102025.09;5093279;28;20028;-89
2022/07/02 11:07:08;;;;;;;0.60;0.60;;;;;;;24.10;43.34;102019.63;5075072;28;20036;-87
2022/07/02 11:09:46;;;;;;;0.50;0.50;;;;;;;24.27;43.68;102023.16;5072791;28;20025;-91
2022/07/02 11:12:15;;;;;;;0.88;0.77;;;;;;;24.24;41.07;102020.66;5072272;28;20048;-91
2022/07/02 11:14:53;;;;;;;0.70;0.70;;;;;;;24.29;43.48;102010.66;5072927;28;20051;-90
2022/07/02 11:17:20;;;;;;;1.13;0.85;;;;;;;24.42;41.72;102024.97;5073833;28;20025;-86
2022/07/02 11:19:51;;;;;;;1.83;0.82;;;;;;;24.34;43.34;102029.81;5071726;28;20396;-89
2022/07/02 11:22:16;;;;;;;0.80;0.80;;;;;;;24.12;42.41;102016.91;5073263;28;20025;-88
2022/07/02 11:24:43;;;;;;;0.50;0.50;;;;;;;24.04;43.67;102014.66;5072490;28;20020;-90
2022/07/02 11:27:09;;;;;;;1.65;0.90;;;;;;;24.35;41.14;102012.97;5068985;28;20043;-88
2022/07/02 11:29:34;;;;;;;1.17;0.60;;;;;;;24.38;42.67;101999.53;5071789;28;20024;-90
2022/07/02 11:32:00;;;;;;;1.23;0.73;;;;;;;24.36;42.50;102006.72;5071441;28;20024;-90